createdAt,value
2022-08-16T00:01:40.676Z,3.25
2022-08-16T00:04:07.736Z,4.95
2022-08-16T00:06:36.588Z,3.72
2022-08-16T00:09:05.828Z,3.47
2022-08-16T00:11:32.978Z,3.42
2022-08-16T00:13:59.808Z,3.33
2022-08-16T00:17:06.412Z,3.35
2022-08-16T00:19:22.572Z,2.92
2022-08-16T00:21:52.230Z,3.30
2022-08-16T00:24:32.153Z,3.97
2022-08-16T00:27:01.324Z,3.70
2022-08-16T00:29:29.598Z,3.72
2022-08-16T00:32:01.002Z,3.10
2022-08-16T00:34:43.419Z,3.03
2022-08-16T00:37:20.253Z,3.78
2022-08-16T00:39:57.327Z,3.30
2022-08-16T00:42:31.605Z,3.35
2022-08-16T00:45:31.068Z,3.10
2022-08-16T00:48:31.328Z,3.58
2022-08-16T00:50:55.385Z,3.53
2022-08-16T00:53:23.002Z,3.33
2022-08-16T00:55:52.838Z,3.17
2022-08-16T00:58:34.537Z,2.95
2022-08-16T01:01:01.873Z,3.30
2022-08-16T01:03:31.644Z,3.03
2022-08-16T01:06:39.654Z,3.13
2022-08-16T01:08:53.202Z,2.75
2022-08-16T01:13:53.157Z,2.90
2022-08-16T01:16:23.459Z,2.65
2022-08-16T01:19:11.355Z,2.88
2022-08-16T01:22:48.029Z,2.55
2022-08-16T01:24:55.355Z,2.38
2022-08-16T01:27:44.693Z,2.20
2022-08-16T01:30:26.147Z,2.33
2022-08-16T01:33:01.224Z,2.50
2022-08-16T01:35:53.543Z,2.50
2022-08-16T01:41:04.882Z,2.42
2022-08-16T01:43:32.934Z,2.05
2022-08-16T01:46:37.699Z,2.33
2022-08-16T01:48:54.376Z,2.40
2022-08-16T01:51:22.036Z,2.10
2022-08-16T01:53:54.478Z,2.45
2022-08-16T01:56:25.161Z,2.17
2022-08-16T01:58:54.852Z,2.10
2022-08-16T02:01:22.229Z,1.70
2022-08-16T02:03:50.279Z,2.78
2022-08-16T02:06:34.335Z,2.30
2022-08-16T02:09:05.379Z,2.28
2022-08-16T02:11:48.193Z,2.10
2022-08-16T02:14:21.360Z,1.90
2022-08-16T02:16:49.090Z,2.30
2022-08-16T02:19:18.363Z,2.40
2022-08-16T02:22:08.417Z,2.42
2022-08-16T02:24:40.901Z,2.85
2022-08-16T02:27:08.941Z,2.22
2022-08-16T02:29:35.919Z,2.67
2022-08-16T02:32:48.981Z,2.20
2022-08-16T02:34:50.193Z,2.67
2022-08-16T02:37:20.943Z,2.13
2022-08-16T02:39:47.859Z,2.45
2022-08-16T02:42:21.018Z,2.42
2022-08-16T02:44:47.636Z,2.10
2022-08-16T02:47:25.435Z,2.53
2022-08-16T02:49:59.320Z,2.38
2022-08-16T02:52:39.349Z,2.15
2022-08-16T02:57:38.068Z,2.50
2022-08-16T03:02:58.194Z,2.22
2022-08-16T03:05:25.724Z,2.50
2022-08-16T03:07:58.015Z,2.88
2022-08-16T03:10:33.353Z,2.67
2022-08-16T03:13:00.565Z,2.47
2022-08-16T03:15:27.639Z,2.47
2022-08-16T03:17:54.428Z,2.42
2022-08-16T03:20:21.315Z,2.35
2022-08-16T03:22:59.507Z,2.80
2022-08-16T03:25:40.877Z,3.22
2022-08-16T03:28:11.030Z,2.83
2022-08-16T03:30:38.168Z,2.55
2022-08-16T03:33:05.235Z,3.20
2022-08-16T03:35:36.156Z,2.65
2022-08-16T03:38:33.955Z,2.70
2022-08-16T03:40:52.179Z,2.63
2022-08-16T03:43:21.461Z,2.83
2022-08-16T03:45:49.561Z,2.70
2022-08-16T03:51:06.440Z,3.47
2022-08-16T03:56:07.627Z,3.28
2022-08-16T03:58:48.455Z,3.65
2022-08-16T04:01:17.936Z,3.38
2022-08-16T04:03:44.517Z,2.90
2022-08-16T04:06:11.143Z,2.70
2022-08-16T04:08:39.533Z,3.03
2022-08-16T04:11:06.680Z,2.72
2022-08-16T04:14:00.095Z,2.83
2022-08-16T04:16:26.212Z,2.92
2022-08-16T04:18:54.609Z,3.05
2022-08-16T04:21:33.426Z,3.00
2022-08-16T04:24:01.563Z,3.03
2022-08-16T04:26:30.821Z,3.38
2022-08-16T04:29:21.479Z,2.75
2022-08-16T04:31:56.859Z,2.92
2022-08-16T04:34:33.273Z,2.72
2022-08-16T04:37:01.416Z,2.55
2022-08-16T04:39:44.888Z,2.70
2022-08-16T04:42:17.699Z,2.88
2022-08-16T04:44:53.372Z,2.60
2022-08-16T04:47:33.333Z,2.90
2022-08-16T04:50:18.211Z,3.40
2022-08-16T04:52:46.538Z,3.25
2022-08-16T04:55:16.301Z,3.25
2022-08-16T04:57:44.371Z,3.70
2022-08-16T05:00:30.284Z,2.80
2022-08-16T05:03:10.343Z,3.30
2022-08-16T05:05:55.354Z,3.63
2022-08-16T05:08:28.234Z,3.20
2022-08-16T05:11:05.684Z,3.20
2022-08-16T05:13:41.657Z,3.40
2022-08-16T05:16:30.296Z,3.28
2022-08-16T05:18:59.450Z,3.45
2022-08-16T05:21:38.528Z,2.80
2022-08-16T05:24:06.965Z,3.58
2022-08-16T05:26:34.683Z,3.30
2022-08-16T05:29:03.724Z,3.35
2022-08-16T05:31:31.416Z,3.20
2022-08-16T05:34:03.342Z,3.55
2022-08-16T05:36:34.160Z,3.35
2022-08-16T05:39:06.786Z,4.00
2022-08-16T05:41:45.614Z,3.45
2022-08-16T05:44:23.532Z,3.60
2022-08-16T05:46:57.743Z,3.30
2022-08-16T05:49:38.468Z,3.08
2022-08-16T05:54:40.070Z,3.55
2022-08-16T05:57:13.446Z,3.47
2022-08-16T05:59:40.156Z,3.63
2022-08-16T06:02:08.487Z,3.80
2022-08-16T06:04:37.562Z,3.35
2022-08-16T06:07:09.113Z,3.13
2022-08-16T06:09:50.990Z,2.80
2022-08-16T06:12:26.888Z,3.55
2022-08-16T06:14:58.913Z,3.42
2022-08-16T06:17:42.286Z,2.97
2022-08-16T06:20:15.165Z,2.72
2022-08-16T06:22:47.747Z,2.30
2022-08-16T06:25:35.480Z,2.95
2022-08-16T06:28:08.647Z,2.50
2022-08-16T06:30:35.902Z,3.05
2022-08-16T06:33:12.281Z,2.65
2022-08-16T06:35:40.559Z,3.15
2022-08-16T06:38:22.211Z,3.00
2022-08-16T06:40:56.619Z,3.22
2022-08-16T06:43:27.380Z,2.75
2022-08-16T06:48:32.951Z,2.83
2022-08-16T06:51:05.640Z,2.72
2022-08-16T06:53:35.733Z,2.60
2022-08-16T06:56:14.483Z,2.20
2022-08-16T06:58:53.536Z,2.53
2022-08-16T07:01:43.211Z,2.90
2022-08-16T07:04:11.872Z,2.53
2022-08-16T07:06:40.244Z,2.35
2022-08-16T07:11:45.901Z,2.30
2022-08-16T07:14:25.148Z,2.42
2022-08-16T07:16:54.085Z,2.25
2022-08-16T07:19:21.438Z,1.98
2022-08-16T07:21:59.420Z,2.72
2022-08-16T07:24:30.020Z,2.60
2022-08-16T07:26:58.015Z,2.33
2022-08-16T07:29:24.857Z,2.17
2022-08-16T07:31:53.872Z,2.20
2022-08-16T07:34:20.904Z,2.08
2022-08-16T07:37:09.535Z,1.98
2022-08-16T07:39:42.982Z,2.22
2022-08-16T07:42:20.198Z,2.22
2022-08-16T07:44:52.728Z,2.20
2022-08-16T07:47:19.693Z,2.60
2022-08-16T07:49:58.224Z,2.42
2022-08-16T07:52:29.920Z,2.20
2022-08-16T07:54:57.628Z,2.30
2022-08-16T07:57:24.569Z,2.30
2022-08-16T07:59:51.430Z,2.60
2022-08-16T08:06:05.827Z,2.63
2022-08-16T08:12:32.429Z,2.50
2022-08-16T08:15:05.971Z,2.30
2022-08-16T08:17:42.698Z,2.55
2022-08-16T08:20:13.574Z,1.92
2022-08-16T08:22:54.075Z,2.10
2022-08-16T08:25:55.190Z,2.40
2022-08-16T08:28:22.406Z,2.70
2022-08-16T08:31:02.786Z,2.47
2022-08-16T08:33:31.617Z,2.40
2022-08-16T08:36:00.975Z,2.40
2022-08-16T08:38:45.188Z,1.88
2022-08-16T08:41:15.410Z,2.80
2022-08-16T08:43:46.216Z,2.63
2022-08-16T08:46:17.917Z,2.20
2022-08-16T08:48:59.806Z,2.08
2022-08-16T08:51:32.036Z,2.58
2022-08-16T08:54:07.059Z,1.70
2022-08-16T08:56:37.711Z,2.55
2022-08-16T08:59:19.900Z,2.22
2022-08-16T09:01:56.793Z,2.55
2022-08-16T09:04:24.693Z,1.88
2022-08-16T09:06:53.615Z,2.60
2022-08-16T09:09:20.939Z,2.20
2022-08-16T09:11:53.756Z,1.95
2022-08-16T09:14:34.166Z,2.03
2022-08-16T09:17:14.024Z,2.28
2022-08-16T09:19:49.323Z,2.00
2022-08-16T09:22:21.505Z,2.05
2022-08-16T09:24:52.402Z,2.50
2022-08-16T09:27:21.285Z,2.42
2022-08-16T09:29:59.967Z,2.20
2022-08-16T09:32:30.672Z,2.35
2022-08-16T09:34:58.788Z,2.45
2022-08-16T09:37:29.614Z,2.30
2022-08-16T09:39:59.674Z,2.13
2022-08-16T09:42:27.735Z,2.58
2022-08-16T09:45:09.654Z,2.40
2022-08-16T09:47:57.012Z,2.50
2022-08-16T09:50:26.908Z,2.45
2022-08-16T09:53:06.046Z,3.00
2022-08-16T09:55:33.385Z,2.08
2022-08-16T09:58:12.316Z,2.15
2022-08-16T10:00:57.749Z,2.40
2022-08-16T10:03:29.593Z,2.30
2022-08-16T10:05:57.385Z,2.75
2022-08-16T10:08:26.158Z,2.30
2022-08-16T10:11:12.290Z,2.63
2022-08-16T10:13:39.586Z,2.72
2022-08-16T10:19:02.086Z,2.85
2022-08-16T10:21:24.145Z,2.35
2022-08-16T10:23:53.653Z,2.15
2022-08-16T10:27:18.900Z,3.40
2022-08-16T10:29:11.577Z,1.95
2022-08-16T10:31:45.323Z,1.90
2022-08-16T10:34:30.967Z,3.08
2022-08-16T10:36:58.990Z,3.08
2022-08-16T10:39:25.844Z,2.45
2022-08-16T10:41:52.673Z,2.42
2022-08-16T10:44:19.272Z,2.47
2022-08-16T10:46:45.786Z,2.58
2022-08-16T10:49:16.851Z,2.63
2022-08-16T10:52:02.872Z,2.33
2022-08-16T10:54:32.167Z,2.08
2022-08-16T10:57:00.107Z,2.38
2022-08-16T10:59:39.039Z,2.55
2022-08-16T11:02:56.804Z,2.35
2022-08-16T11:05:06.287Z,2.40
2022-08-16T11:07:53.155Z,2.60
2022-08-16T11:13:58.078Z,2.00
2022-08-16T11:19:05.868Z,2.00
2022-08-16T11:22:23.196Z,2.45
2022-08-16T11:24:41.654Z,2.22
2022-08-16T11:27:23.541Z,1.95
2022-08-16T11:29:53.516Z,1.80
2022-08-16T11:32:31.227Z,1.63
2022-08-16T11:35:10.472Z,2.05
2022-08-16T11:40:32.709Z,1.60
2022-08-16T11:43:00.163Z,1.80
2022-08-16T11:45:26.786Z,1.88
2022-08-16T11:47:54.879Z,1.67
2022-08-16T11:50:24.280Z,2.03
2022-08-16T11:52:51.516Z,1.73
2022-08-16T11:55:18.589Z,1.65
2022-08-16T11:57:45.388Z,1.88
2022-08-16T12:00:33.210Z,1.80
2022-08-16T12:03:01.879Z,1.80
2022-08-16T12:05:28.737Z,2.25
2022-08-16T12:07:55.913Z,2.05
2022-08-16T12:10:28.999Z,2.00
2022-08-16T12:12:57.917Z,1.70
2022-08-16T12:15:26.513Z,2.03
2022-08-16T12:17:55.725Z,1.98
2022-08-16T12:20:26.131Z,1.80
2022-08-16T12:22:56.609Z,1.75
2022-08-16T12:25:29.470Z,1.75
2022-08-16T12:27:56.832Z,1.98
2022-08-16T12:30:32.211Z,1.95
2022-08-16T12:33:03.345Z,2.08
2022-08-16T12:35:32.569Z,2.10
2022-08-16T12:38:01.395Z,1.77
2022-08-16T12:40:49.308Z,1.70
2022-08-16T12:43:23.522Z,1.90
2022-08-16T12:45:54.118Z,2.30
2022-08-16T12:48:43.464Z,1.52
2022-08-16T12:51:19.837Z,1.83
2022-08-16T12:53:52.660Z,2.00
2022-08-16T12:56:21.064Z,2.25
2022-08-16T12:58:51.518Z,1.70
2022-08-16T13:01:26.858Z,1.90
2022-08-16T13:04:20.347Z,1.73
2022-08-16T13:06:45.033Z,1.70
2022-08-16T13:09:23.578Z,2.00
2022-08-16T13:11:59.929Z,2.10
2022-08-16T13:14:32.290Z,2.20
2022-08-16T13:17:06.908Z,1.73
2022-08-16T13:20:05.616Z,1.67
2022-08-16T13:22:22.252Z,1.98
2022-08-16T13:24:51.371Z,2.33
2022-08-16T13:27:18.107Z,2.25
2022-08-16T13:29:47.383Z,2.00
2022-08-16T13:32:40.237Z,2.33
2022-08-16T13:35:07.997Z,1.90
2022-08-16T13:37:39.803Z,2.10
2022-08-16T13:40:08.888Z,2.13
2022-08-16T13:42:44.182Z,2.28
2022-08-16T13:45:15.579Z,2.42
2022-08-16T13:47:42.911Z,2.47
2022-08-16T13:50:11.083Z,2.58
2022-08-16T13:52:39.885Z,1.98
2022-08-16T13:55:17.563Z,2.40
2022-08-16T13:58:35.518Z,2.20
2022-08-16T14:00:31.592Z,1.90
2022-08-16T14:02:59.268Z,2.20
2022-08-16T14:05:26.763Z,2.20
2022-08-16T14:07:54.028Z,2.25
2022-08-16T14:10:21.197Z,2.08
2022-08-16T14:12:47.964Z,2.03
2022-08-16T14:15:15.942Z,2.22
2022-08-16T14:18:15.589Z,2.13
2022-08-16T14:20:29.930Z,1.98
2022-08-16T14:22:56.966Z,1.85
2022-08-16T14:25:24.946Z,2.25
2022-08-16T14:27:54.529Z,2.58
2022-08-16T14:30:21.622Z,2.42
2022-08-16T14:32:50.893Z,2.47
2022-08-16T14:35:29.253Z,1.80
2022-08-16T14:38:04.271Z,2.10
2022-08-16T14:40:31.466Z,2.38
2022-08-16T14:42:58.082Z,2.35
2022-08-16T14:45:33.532Z,2.20
2022-08-16T14:48:00.300Z,2.63
2022-08-16T14:50:27.442Z,2.47
2022-08-16T14:53:12.881Z,2.30
2022-08-16T14:55:41.077Z,2.30
2022-08-16T14:58:18.784Z,2.35
2022-08-16T15:00:46.403Z,2.05
2022-08-16T15:03:13.011Z,2.20
2022-08-16T15:05:42.435Z,2.08
2022-08-16T15:08:10.196Z,1.95
2022-08-16T15:10:39.114Z,1.90
2022-08-16T15:13:12.837Z,2.30
2022-08-16T15:15:42.037Z,1.90
2022-08-16T15:18:12.105Z,2.78
2022-08-16T15:20:38.947Z,2.38
2022-08-16T15:23:07.928Z,2.05
2022-08-16T15:25:35.738Z,2.22
2022-08-16T15:28:23.401Z,2.00
2022-08-16T15:30:59.505Z,2.15
2022-08-16T15:33:27.661Z,1.92
2022-08-16T15:35:55.276Z,2.30
2022-08-16T15:38:57.962Z,2.28
2022-08-16T15:41:13.419Z,2.42
2022-08-16T15:43:40.416Z,1.90
2022-08-16T15:46:35.219Z,2.00
2022-08-16T15:49:12.066Z,2.40
2022-08-16T15:51:39.325Z,2.22
2022-08-16T15:54:29.631Z,1.95
2022-08-16T15:56:55.319Z,2.20
2022-08-16T15:59:26.963Z,2.50
2022-08-16T16:01:55.899Z,2.28
2022-08-16T16:04:25.806Z,2.50
2022-08-16T16:06:55.402Z,2.50
2022-08-16T16:09:34.583Z,2.40
2022-08-16T16:12:16.356Z,2.20
2022-08-16T16:14:52.072Z,1.95
2022-08-16T16:17:18.665Z,1.92
2022-08-16T16:19:45.256Z,2.65
2022-08-16T16:22:16.426Z,2.63
2022-08-16T16:24:47.054Z,2.35
2022-08-16T16:27:16.092Z,2.22
2022-08-16T16:29:46.152Z,2.40
2022-08-16T16:32:17.272Z,2.33
2022-08-16T16:34:43.836Z,2.60
2022-08-16T16:37:10.517Z,2.35
2022-08-16T16:39:37.718Z,2.10
2022-08-16T16:42:05.310Z,2.20
2022-08-16T16:44:33.726Z,2.20
2022-08-16T16:47:03.200Z,2.53
2022-08-16T16:49:29.827Z,2.58
2022-08-16T16:52:06.487Z,2.38
2022-08-16T16:54:35.030Z,2.95
2022-08-16T16:57:02.191Z,2.40
2022-08-16T16:59:28.876Z,3.00
2022-08-16T17:02:01.362Z,2.28
2022-08-16T17:04:43.444Z,2.20
2022-08-16T17:07:11.169Z,2.50
2022-08-16T17:09:40.611Z,2.47
2022-08-16T17:12:08.983Z,2.30
2022-08-16T17:14:35.683Z,2.47
2022-08-16T17:17:08.519Z,1.90
2022-08-16T17:19:40.867Z,2.05
2022-08-16T17:22:14.516Z,2.90
2022-08-16T17:24:44.823Z,2.25
2022-08-16T17:27:17.686Z,2.75
2022-08-16T17:29:47.556Z,2.28
2022-08-16T17:32:34.316Z,2.63
2022-08-16T17:35:18.447Z,2.03
2022-08-16T17:37:54.204Z,1.80
2022-08-16T17:40:41.055Z,2.15
2022-08-16T17:43:13.311Z,2.00
2022-08-16T17:45:41.465Z,1.95
2022-08-16T17:48:08.488Z,2.10
2022-08-16T17:50:35.832Z,2.13
2022-08-16T17:53:03.021Z,1.85
2022-08-16T17:55:33.766Z,2.00
2022-08-16T17:58:00.744Z,2.42
2022-08-16T18:00:37.726Z,2.40
2022-08-16T18:03:06.096Z,2.28
2022-08-16T18:05:32.779Z,2.47
2022-08-16T18:07:59.334Z,2.28
2022-08-16T18:10:32.483Z,1.95
2022-08-16T18:13:00.626Z,2.00
2022-08-16T18:15:27.739Z,2.55
2022-08-16T18:17:54.687Z,2.58
2022-08-16T18:20:41.869Z,2.40
2022-08-16T18:23:15.247Z,2.10
2022-08-16T18:25:53.781Z,2.35
2022-08-16T18:28:21.267Z,2.10
2022-08-16T18:30:51.661Z,2.28
2022-08-16T18:33:20.608Z,2.88
2022-08-16T18:35:47.370Z,2.17
2022-08-16T18:38:13.968Z,2.08
2022-08-16T18:40:40.978Z,2.33
2022-08-16T18:43:11.225Z,2.20
2022-08-16T18:45:40.399Z,2.30
2022-08-16T18:48:08.410Z,2.05
2022-08-16T18:50:59.983Z,2.78
2022-08-16T18:53:24.207Z,2.80
2022-08-16T18:55:54.517Z,2.15
2022-08-16T18:58:21.292Z,2.88
2022-08-16T19:00:56.717Z,2.90
2022-08-16T19:03:33.178Z,2.83
2022-08-16T19:06:11.391Z,2.35
2022-08-16T19:08:41.542Z,2.65
2022-08-16T19:11:13.839Z,2.60
2022-08-16T19:13:44.118Z,2.58
2022-08-16T19:16:11.496Z,2.72
2022-08-16T19:18:38.062Z,2.25
2022-08-16T19:21:05.868Z,2.30
2022-08-16T19:23:34.480Z,2.90
2022-08-16T19:26:05.849Z,2.90
2022-08-16T19:28:58.007Z,2.30
2022-08-16T19:31:29.179Z,2.70
2022-08-16T19:33:56.890Z,2.35
2022-08-16T19:36:35.299Z,2.55
2022-08-16T19:39:08.884Z,2.80
2022-08-16T19:41:37.673Z,2.60
2022-08-16T19:44:05.601Z,2.67
2022-08-16T19:46:32.868Z,2.92
2022-08-16T19:48:59.799Z,2.85
2022-08-16T19:51:26.463Z,3.05
2022-08-16T19:53:53.035Z,3.20
2022-08-16T19:56:21.578Z,2.92
2022-08-16T19:59:16.399Z,3.08
2022-08-16T20:01:41.134Z,2.88
2022-08-16T20:04:11.905Z,3.53
2022-08-16T20:06:39.055Z,2.92
2022-08-16T20:09:05.988Z,3.40
2022-08-16T20:11:32.717Z,3.25
2022-08-16T20:13:59.499Z,4.07
2022-08-16T20:16:26.194Z,3.42
2022-08-16T20:18:52.754Z,3.13
2022-08-16T20:21:19.519Z,3.65
2022-08-16T20:23:46.405Z,3.70
2022-08-16T20:26:13.065Z,3.75
2022-08-16T20:28:52.559Z,3.38
2022-08-16T20:31:22.651Z,2.90
2022-08-16T20:33:50.186Z,3.55
2022-08-16T20:36:16.899Z,3.90
2022-08-16T20:38:46.897Z,3.38
2022-08-16T20:41:13.881Z,4.03
2022-08-16T20:43:40.780Z,3.90
2022-08-16T20:46:07.460Z,3.70
2022-08-16T20:48:34.015Z,4.00
2022-08-16T20:51:00.533Z,3.97
2022-08-16T20:53:27.086Z,3.70
2022-08-16T20:55:53.600Z,3.72
2022-08-16T20:58:20.171Z,3.90
2022-08-16T21:00:47.311Z,3.75
2022-08-16T21:03:14.193Z,3.88
2022-08-16T21:05:41.304Z,3.72
2022-08-16T21:08:51.143Z,4.30
2022-08-16T21:10:56.308Z,4.18
2022-08-16T21:13:23.187Z,4.45
2022-08-16T21:15:49.705Z,3.95
2022-08-16T21:18:16.260Z,4.03
2022-08-16T21:20:42.830Z,3.85
2022-08-16T21:23:11.074Z,4.53
2022-08-16T21:25:42.142Z,4.47
2022-08-16T21:28:39.061Z,3.72
2022-08-16T21:31:13.375Z,3.92
2022-08-16T21:33:40.149Z,3.90
2022-08-16T21:36:06.954Z,4.00
2022-08-16T21:38:33.543Z,3.90
2022-08-16T21:41:00.412Z,3.95
2022-08-16T21:43:31.824Z,4.05
2022-08-16T21:45:59.272Z,3.85
2022-08-16T21:48:32.691Z,4.03
2022-08-16T21:51:06.856Z,4.07
2022-08-16T21:53:33.951Z,3.70
2022-08-16T21:56:00.982Z,4.13
2022-08-16T21:58:28.613Z,3.92
2022-08-16T22:00:55.164Z,3.85
2022-08-16T22:03:21.741Z,4.13
2022-08-16T22:06:12.407Z,3.45
2022-08-16T22:08:45.562Z,4.53
2022-08-16T22:11:17.148Z,3.90
2022-08-16T22:13:44.474Z,3.60
2022-08-16T22:16:19.381Z,3.92
2022-08-16T22:18:52.253Z,3.70
2022-08-16T22:21:19.324Z,3.85
2022-08-16T22:23:45.944Z,3.63
2022-08-16T22:26:29.871Z,4.25
2022-08-16T22:28:57.821Z,4.03
2022-08-16T22:31:24.380Z,4.47
2022-08-16T22:33:50.928Z,4.40
2022-08-16T22:36:17.487Z,4.35
2022-08-16T22:38:54.847Z,5.00
2022-08-16T22:41:24.007Z,4.63
2022-08-16T22:43:50.576Z,4.57
2022-08-16T22:46:18.666Z,4.65
2022-08-16T22:48:45.760Z,5.50
2022-08-16T22:51:12.328Z,5.10
2022-08-16T22:53:38.888Z,5.07
2022-08-16T22:56:05.593Z,4.32
2022-08-16T22:58:34.217Z,4.65
2022-08-16T23:01:07.001Z,4.50
2022-08-16T23:03:33.751Z,4.72
2022-08-16T23:06:00.509Z,4.57
2022-08-16T23:08:38.676Z,4.43
2022-08-16T23:11:18.003Z,4.88
2022-08-16T23:13:52.975Z,4.63
2022-08-16T23:16:33.094Z,4.75
2022-08-16T23:19:10.725Z,4.75
2022-08-16T23:21:39.552Z,5.07
2022-08-16T23:24:07.190Z,4.57
2022-08-16T23:26:44.305Z,5.40
2022-08-16T23:29:15.871Z,5.75
2022-08-16T23:31:49.812Z,5.43
2022-08-16T23:34:16.367Z,4.28
2022-08-16T23:36:43.058Z,4.22
2022-08-16T23:39:09.645Z,4.03
2022-08-16T23:41:36.316Z,4.28
2022-08-16T23:44:03.187Z,4.72
2022-08-16T23:46:49.698Z,4.68
2022-08-16T23:49:57.444Z,4.50
2022-08-16T23:52:07.871Z,3.85
2022-08-16T23:54:35.958Z,4.25
2022-08-16T23:57:04.484Z,4.32
2022-08-16T23:59:38.055Z,4.53
